sensor_id;sensor_type;location;lat;lon;timestamp;pressure;altitude;pressure_sealevel;temperature;humidity
3748;BME280;1889;50.058;8.688;2023-07-13T00:02:25;100131.49;;;22.41;42.22
3748;BME280;1889;50.058;8.688;2023-07-13T00:04:54;100129.00;;;22.45;42.15
3748;BME280;1889;50.058;8.688;2023-07-13T00:07:24;100126.25;;;22.32;42.41
3748;BME280;1889;50.058;8.688;2023-07-13T00:09:53;100128.68;;;22.50;42.05
3748;BME280;1889;50.058;8.688;2023-07-13T00:12:34;100133.66;;;22.29;42.42
3748;BME280;1889;50.058;8.688;2023-07-13T00:15:12;100137.46;;;22.32;42.26
3748;BME280;1889;50.058;8.688;2023-07-13T00:17:35;100140.65;;;22.24;42.40
3748;BME280;1889;50.058;8.688;2023-07-13T00:20:06;100141.44;;;22.19;42.53
3748;BME280;1889;50.058;8.688;2023-07-13T00:22:36;100144.81;;;22.42;41.92
3748;BME280;1889;50.058;8.688;2023-07-13T00:25:06;100149.45;;;22.73;41.25
3748;BME280;1889;50.058;8.688;2023-07-13T00:27:35;100149.73;;;22.56;41.63
3748;BME280;1889;50.058;8.688;2023-07-13T00:30:05;100154.96;;;22.64;41.47
3748;BME280;1889;50.058;8.688;2023-07-13T00:32:34;100143.66;;;22.66;41.26
3748;BME280;1889;50.058;8.688;2023-07-13T00:35:03;100143.45;;;22.69;41.61
3748;BME280;1889;50.058;8.688;2023-07-13T00:37:32;100143.69;;;22.59;41.96
3748;BME280;1889;50.058;8.688;2023-07-13T00:40:04;100143.08;;;22.41;42.58
3748;BME280;1889;50.058;8.688;2023-07-13T00:42:34;100144.52;;;21.92;43.62
3748;BME280;1889;50.058;8.688;2023-07-13T00:45:06;100147.79;;;21.83;43.97
3748;BME280;1889;50.058;8.688;2023-07-13T00:47:35;100146.74;;;21.99;43.52
3748;BME280;1889;50.058;8.688;2023-07-13T00:50:10;100154.52;;;21.61;44.55
3748;BME280;1889;50.058;8.688;2023-07-13T00:52:43;100158.62;;;21.67;44.34
3748;BME280;1889;50.058;8.688;2023-07-13T00:55:12;100158.91;;;21.77;43.98
3748;BME280;1889;50.058;8.688;2023-07-13T00:57:43;100162.16;;;21.75;43.98
3748;BME280;1889;50.058;8.688;2023-07-13T01:00:13;100157.77;;;21.31;44.85
3748;BME280;1889;50.058;8.688;2023-07-13T01:02:45;100153.45;;;21.50;44.37
3748;BME280;1889;50.058;8.688;2023-07-13T01:05:17;100161.99;;;21.56;44.32
3748;BME280;1889;50.058;8.688;2023-07-13T01:07:49;100160.52;;;21.65;44.07
3748;BME280;1889;50.058;8.688;2023-07-13T01:10:22;100160.55;;;21.72;43.81
3748;BME280;1889;50.058;8.688;2023-07-13T01:12:51;100151.63;;;21.43;44.55
3748;BME280;1889;50.058;8.688;2023-07-13T01:15:43;100151.75;;;21.56;44.29
3748;BME280;1889;50.058;8.688;2023-07-13T01:18:10;100146.48;;;21.40;44.68
3748;BME280;1889;50.058;8.688;2023-07-13T01:20:40;100155.56;;;21.30;44.86
3748;BME280;1889;50.058;8.688;2023-07-13T01:23:11;100159.84;;;21.26;44.92
3748;BME280;1889;50.058;8.688;2023-07-13T01:25:41;100152.75;;;21.18;45.13
3748;BME280;1889;50.058;8.688;2023-07-13T01:28:10;100158.63;;;21.31;44.86
3748;BME280;1889;50.058;8.688;2023-07-13T01:30:40;100151.07;;;21.31;44.92
3748;BME280;1889;50.058;8.688;2023-07-13T01:33:15;100142.70;;;21.14;45.28
3748;BME280;1889;50.058;8.688;2023-07-13T01:35:46;100145.78;;;20.92;45.81
3748;BME280;1889;50.058;8.688;2023-07-13T01:38:17;100150.98;;;21.10;45.38
3748;BME280;1889;50.058;8.688;2023-07-13T01:40:47;100148.00;;;21.00;45.70
3748;BME280;1889;50.058;8.688;2023-07-13T01:43:16;100151.31;;;20.75;46.27
3748;BME280;1889;50.058;8.688;2023-07-13T01:45:46;100151.02;;;20.80;46.29
3748;BME280;1889;50.058;8.688;2023-07-13T01:48:15;100150.33;;;20.76;46.46
3748;BME280;1889;50.058;8.688;2023-07-13T01:50:44;100149.39;;;20.84;46.25
3748;BME280;1889;50.058;8.688;2023-07-13T01:53:13;100153.81;;;20.92;46.16
3748;BME280;1889;50.058;8.688;2023-07-13T01:55:42;100158.82;;;20.99;46.01
3748;BME280;1889;50.058;8.688;2023-07-13T01:58:11;100164.48;;;20.78;46.55
3748;BME280;1889;50.058;8.688;2023-07-13T02:00:40;100170.06;;;20.44;47.40
3748;BME280;1889;50.058;8.688;2023-07-13T02:03:09;100165.22;;;20.66;46.97
3748;BME280;1889;50.058;8.688;2023-07-13T02:05:38;100164.97;;;20.55;47.23
3748;BME280;1889;50.058;8.688;2023-07-13T02:08:08;100159.84;;;20.59;47.13
3748;BME280;1889;50.058;8.688;2023-07-13T02:10:37;100162.22;;;20.86;46.48
3748;BME280;1889;50.058;8.688;2023-07-13T02:13:07;100179.63;;;20.64;47.07
3748;BME280;1889;50.058;8.688;2023-07-13T02:15:40;100174.80;;;20.77;46.70
3748;BME280;1889;50.058;8.688;2023-07-13T02:18:09;100175.19;;;20.78;46.73
3748;BME280;1889;50.058;8.688;2023-07-13T02:20:38;100180.33;;;20.67;47.13
3748;BME280;1889;50.058;8.688;2023-07-13T02:23:07;100179.20;;;20.78;46.83
3748;BME280;1889;50.058;8.688;2023-07-13T02:25:37;100179.20;;;20.78;46.91
3748;BME280;1889;50.058;8.688;2023-07-13T02:28:06;100175.97;;;20.80;46.92
3748;BME280;1889;50.058;8.688;2023-07-13T02:30:36;100172.66;;;20.68;47.17
3748;BME280;1889;50.058;8.688;2023-07-13T02:33:06;100181.23;;;20.82;46.88
3748;BME280;1889;50.058;8.688;2023-07-13T02:35:35;100185.61;;;20.37;47.96
3748;BME280;1889;50.058;8.688;2023-07-13T02:38:04;100182.91;;;20.53;47.58
3748;BME280;1889;50.058;8.688;2023-07-13T02:40:33;100180.23;;;20.53;47.55
3748;BME280;1889;50.058;8.688;2023-07-13T02:43:03;100179.13;;;20.57;47.49
3748;BME280;1889;50.058;8.688;2023-07-13T02:45:32;100181.31;;;20.80;46.97
3748;BME280;1889;50.058;8.688;2023-07-13T02:48:01;100184.42;;;20.66;47.38
3748;BME280;1889;50.058;8.688;2023-07-13T02:50:30;100185.92;;;20.63;47.61
3748;BME280;1889;50.058;8.688;2023-07-13T02:52:59;100188.39;;;20.81;47.12
3748;BME280;1889;50.058;8.688;2023-07-13T02:55:28;100189.36;;;20.87;47.12
3748;BME280;1889;50.058;8.688;2023-07-13T02:57:57;100191.17;;;20.87;47.12
3748;BME280;1889;50.058;8.688;2023-07-13T03:00:26;100193.95;;;20.92;47.08
3748;BME280;1889;50.058;8.688;2023-07-13T03:02:56;100204.19;;;20.93;47.09
3748;BME280;1889;50.058;8.688;2023-07-13T03:05:26;100197.75;;;21.11;46.72
3748;BME280;1889;50.058;8.688;2023-07-13T03:07:55;100202.91;;;21.07;46.77
3748;BME280;1889;50.058;8.688;2023-07-13T03:10:24;100201.28;;;21.12;46.65
3748;BME280;1889;50.058;8.688;2023-07-13T03:12:53;100200.49;;;21.03;46.76
3748;BME280;1889;50.058;8.688;2023-07-13T03:15:22;100211.94;;;20.90;46.89
3748;BME280;1889;50.058;8.688;2023-07-13T03:17:51;100213.87;;;20.73;47.28
3748;BME280;1889;50.058;8.688;2023-07-13T03:20:20;100215.52;;;20.75;47.20
3748;BME280;1889;50.058;8.688;2023-07-13T03:22:49;100210.48;;;20.92;46.94
3748;BME280;1889;50.058;8.688;2023-07-13T03:25:18;100218.09;;;21.00;46.85
3748;BME280;1889;50.058;8.688;2023-07-13T03:27:47;100220.09;;;20.73;47.71
3748;BME280;1889;50.058;8.688;2023-07-13T03:30:16;100225.30;;;20.83;47.60
3748;BME280;1889;50.058;8.688;2023-07-13T03:32:45;100227.94;;;20.99;47.33
3748;BME280;1889;50.058;8.688;2023-07-13T03:35:15;100230.24;;;21.05;47.01
3748;BME280;1889;50.058;8.688;2023-07-13T03:37:44;100226.23;;;21.05;46.70
3748;BME280;1889;50.058;8.688;2023-07-13T03:40:13;100230.80;;;21.03;46.45
3748;BME280;1889;50.058;8.688;2023-07-13T03:42:42;100236.27;;;20.86;46.80
3748;BME280;1889;50.058;8.688;2023-07-13T03:45:11;100238.99;;;20.54;47.52
3748;BME280;1889;50.058;8.688;2023-07-13T03:47:41;100241.32;;;20.45;47.89
3748;BME280;1889;50.058;8.688;2023-07-13T03:50:10;100241.23;;;20.06;48.92
3748;BME280;1889;50.058;8.688;2023-07-13T03:52:39;100248.42;;;20.13;48.79
3748;BME280;1889;50.058;8.688;2023-07-13T03:55:08;100242.66;;;20.20;48.69
3748;BME280;1889;50.058;8.688;2023-07-13T03:57:37;100241.80;;;19.96;49.58
3748;BME280;1889;50.058;8.688;2023-07-13T04:00:07;100239.75;;;19.76;50.26
3748;BME280;1889;50.058;8.688;2023-07-13T04:02:37;100241.20;;;19.49;51.14
3748;BME280;1889;50.058;8.688;2023-07-13T04:05:06;100251.47;;;19.22;52.08
3748;BME280;1889;50.058;8.688;2023-07-13T04:07:35;100248.43;;;19.21;52.23
3748;BME280;1889;50.058;8.688;2023-07-13T04:10:04;100245.26;;;19.22;52.28
3748;BME280;1889;50.058;8.688;2023-07-13T04:12:33;100248.23;;;19.76;50.66
3748;BME280;1889;50.058;8.688;2023-07-13T04:15:02;100248.73;;;19.67;51.14
3748;BME280;1889;50.058;8.688;2023-07-13T04:17:32;100253.13;;;19.42;52.07
3748;BME280;1889;50.058;8.688;2023-07-13T04:20:01;100253.13;;;19.42;52.07
3748;BME280;1889;50.058;8.688;2023-07-13T04:22:30;100253.59;;;19.41;52.13
3748;BME280;1889;50.058;8.688;2023-07-13T04:24:59;100247.78;;;19.68;51.59
3748;BME280;1889;50.058;8.688;2023-07-13T04:27:29;100247.02;;;19.90;50.95
3748;BME280;1889;50.058;8.688;2023-07-13T04:29:58;100246.58;;;20.06;50.73
3748;BME280;1889;50.058;8.688;2023-07-13T04:32:27;100250.67;;;20.20;50.37
3748;BME280;1889;50.058;8.688;2023-07-13T04:34:57;100254.77;;;19.95;51.21
3748;BME280;1889;50.058;8.688;2023-07-13T04:37:27;100259.16;;;19.63;52.14
3748;BME280;1889;50.058;8.688;2023-07-13T04:39:57;100255.09;;;19.56;52.38
3748;BME280;1889;50.058;8.688;2023-07-13T04:42:26;100256.02;;;19.63;52.35
3748;BME280;1889;50.058;8.688;2023-07-13T04:44:55;100254.09;;;19.91;51.57
3748;BME280;1889;50.058;8.688;2023-07-13T04:47:24;100255.38;;;20.08;51.14
3748;BME280;1889;50.058;8.688;2023-07-13T04:49:53;100257.75;;;20.22;50.69
3748;BME280;1889;50.058;8.688;2023-07-13T04:52:22;100256.77;;;20.40;50.27
3748;BME280;1889;50.058;8.688;2023-07-13T04:54:51;100258.50;;;20.41;50.16
3748;BME280;1889;50.058;8.688;2023-07-13T04:57:20;100261.19;;;20.08;51.45
3748;BME280;1889;50.058;8.688;2023-07-13T04:59:49;100264.06;;;19.88;52.06
3748;BME280;1889;50.058;8.688;2023-07-13T05:02:20;100266.98;;;20.16;51.35
3748;BME280;1889;50.058;8.688;2023-07-13T05:04:49;100260.92;;;20.12;51.53
3748;BME280;1889;50.058;8.688;2023-07-13T05:07:18;100262.94;;;20.25;51.54
3748;BME280;1889;50.058;8.688;2023-07-13T05:09:47;100256.79;;;20.78;49.41
3748;BME280;1889;50.058;8.688;2023-07-13T05:12:16;100256.79;;;20.78;49.41
3748;BME280;1889;50.058;8.688;2023-07-13T05:14:45;100264.73;;;21.03;48.79
3748;BME280;1889;50.058;8.688;2023-07-13T05:17:14;100265.69;;;21.24;48.20
3748;BME280;1889;50.058;8.688;2023-07-13T05:19:44;100259.79;;;21.33;47.91
3748;BME280;1889;50.058;8.688;2023-07-13T05:22:13;100260.33;;;21.24;48.09
3748;BME280;1889;50.058;8.688;2023-07-13T05:24:42;100269.16;;;21.33;47.87
3748;BME280;1889;50.058;8.688;2023-07-13T05:27:11;100264.52;;;21.51;47.46
3748;BME280;1889;50.058;8.688;2023-07-13T05:29:46;100264.36;;;21.61;47.21
3748;BME280;1889;50.058;8.688;2023-07-13T05:32:15;100271.02;;;21.17;47.56
3748;BME280;1889;50.058;8.688;2023-07-13T05:34:44;100268.23;;;21.42;47.15
3748;BME280;1889;50.058;8.688;2023-07-13T05:37:13;100271.44;;;21.62;46.77
3748;BME280;1889;50.058;8.688;2023-07-13T05:39:42;100271.36;;;21.71;46.48
3748;BME280;1889;50.058;8.688;2023-07-13T05:42:11;100268.45;;;21.53;46.69
3748;BME280;1889;50.058;8.688;2023-07-13T05:44:41;100276.52;;;21.74;46.16
3748;BME280;1889;50.058;8.688;2023-07-13T05:47:10;100271.45;;;21.84;45.93
3748;BME280;1889;50.058;8.688;2023-07-13T05:49:39;100278.16;;;21.84;46.11
3748;BME280;1889;50.058;8.688;2023-07-13T05:52:08;100282.50;;;22.00;45.77
3748;BME280;1889;50.058;8.688;2023-07-13T05:54:37;100284.14;;;22.03;45.65
3748;BME280;1889;50.058;8.688;2023-07-13T05:57:06;100285.58;;;21.57;46.77
3748;BME280;1889;50.058;8.688;2023-07-13T05:59:35;100291.83;;;21.28;47.34
3748;BME280;1889;50.058;8.688;2023-07-13T06:02:05;100292.80;;;21.71;46.30
3748;BME280;1889;50.058;8.688;2023-07-13T06:04:34;100290.12;;;21.85;45.74
3748;BME280;1889;50.058;8.688;2023-07-13T06:07:03;100292.51;;;21.83;45.56
3748;BME280;1889;50.058;8.688;2023-07-13T06:09:32;100297.47;;;21.08;45.85
3748;BME280;1889;50.058;8.688;2023-07-13T06:12:01;100290.08;;;21.20;45.72
3748;BME280;1889;50.058;8.688;2023-07-13T06:14:30;100290.75;;;21.53;45.22
3748;BME280;1889;50.058;8.688;2023-07-13T06:16:59;100294.41;;;21.74;44.69
3748;BME280;1889;50.058;8.688;2023-07-13T06:19:28;100296.02;;;21.55;44.66
3748;BME280;1889;50.058;8.688;2023-07-13T06:21:57;100291.80;;;21.21;45.33
3748;BME280;1889;50.058;8.688;2023-07-13T06:24:27;100295.84;;;21.28;45.57
3748;BME280;1889;50.058;8.688;2023-07-13T06:26:56;100301.41;;;21.32;45.51
3748;BME280;1889;50.058;8.688;2023-07-13T06:29:25;100290.21;;;21.77;44.75
3748;BME280;1889;50.058;8.688;2023-07-13T06:31:54;100298.38;;;21.45;44.69
3748;BME280;1889;50.058;8.688;2023-07-13T06:34:23;100296.89;;;21.62;44.34
3748;BME280;1889;50.058;8.688;2023-07-13T06:36:52;100302.02;;;21.95;43.72
3748;BME280;1889;50.058;8.688;2023-07-13T06:39:21;100301.10;;;21.74;43.77
3748;BME280;1889;50.058;8.688;2023-07-13T06:41:50;100297.30;;;21.78;43.42
3748;BME280;1889;50.058;8.688;2023-07-13T06:44:19;100296.77;;;21.57;43.56
3748;BME280;1889;50.058;8.688;2023-07-13T06:46:48;100298.34;;;21.75;43.77
3748;BME280;1889;50.058;8.688;2023-07-13T06:49:17;100306.93;;;21.66;43.56
3748;BME280;1889;50.058;8.688;2023-07-13T06:51:46;100304.57;;;21.90;43.42
3748;BME280;1889;50.058;8.688;2023-07-13T06:54:15;100310.74;;;21.99;43.10
3748;BME280;1889;50.058;8.688;2023-07-13T06:56:44;100315.24;;;21.98;42.81
3748;BME280;1889;50.058;8.688;2023-07-13T06:59:13;100308.23;;;21.96;43.16
3748;BME280;1889;50.058;8.688;2023-07-13T07:01:42;100314.55;;;21.95;43.07
3748;BME280;1889;50.058;8.688;2023-07-13T07:04:11;100314.16;;;21.80;43.29
3748;BME280;1889;50.058;8.688;2023-07-13T07:06:40;100313.77;;;21.79;43.53
3748;BME280;1889;50.058;8.688;2023-07-13T07:09:09;100322.24;;;22.08;43.19
3748;BME280;1889;50.058;8.688;2023-07-13T07:11:38;100321.00;;;22.42;42.43
3748;BME280;1889;50.058;8.688;2023-07-13T07:14:08;100323.97;;;22.09;42.97
3748;BME280;1889;50.058;8.688;2023-07-13T07:19:05;100321.28;;;22.16;42.47
3748;BME280;1889;50.058;8.688;2023-07-13T07:21:34;100318.99;;;22.17;42.25
3748;BME280;1889;50.058;8.688;2023-07-13T07:24:03;100320.41;;;22.51;41.76
3748;BME280;1889;50.058;8.688;2023-07-13T07:26:32;100325.20;;;22.60;41.48
3748;BME280;1889;50.058;8.688;2023-07-13T07:29:01;100323.64;;;22.85;41.08
3748;BME280;1889;50.058;8.688;2023-07-13T07:31:30;100325.95;;;22.55;41.69
3748;BME280;1889;50.058;8.688;2023-07-13T07:34:00;100328.13;;;22.91;41.15
3748;BME280;1889;50.058;8.688;2023-07-13T07:36:29;100327.30;;;23.03;40.86
3748;BME280;1889;50.058;8.688;2023-07-13T07:38:58;100328.05;;;23.12;40.66
3748;BME280;1889;50.058;8.688;2023-07-13T07:41:27;100329.06;;;23.24;40.35
3748;BME280;1889;50.058;8.688;2023-07-13T07:43:56;100331.23;;;23.32;40.35
3748;BME280;1889;50.058;8.688;2023-07-13T07:46:25;100341.05;;;22.99;40.17
3748;BME280;1889;50.058;8.688;2023-07-13T07:48:54;100329.00;;;23.18;40.12
3748;BME280;1889;50.058;8.688;2023-07-13T07:51:24;100330.53;;;23.35;39.79
3748;BME280;1889;50.058;8.688;2023-07-13T07:53:53;100334.23;;;23.54;39.42
3748;BME280;1889;50.058;8.688;2023-07-13T07:56:22;100329.13;;;23.56;39.44
3748;BME280;1889;50.058;8.688;2023-07-13T07:58:51;100325.26;;;23.61;39.04
3748;BME280;1889;50.058;8.688;2023-07-13T08:01:20;100324.24;;;23.09;39.51
3748;BME280;1889;50.058;8.688;2023-07-13T08:03:49;100323.92;;;23.14;39.87
3748;BME280;1889;50.058;8.688;2023-07-13T08:06:18;100321.78;;;23.19;40.08
3748;BME280;1889;50.058;8.688;2023-07-13T08:08:48;100319.07;;;23.46;39.71
3748;BME280;1889;50.058;8.688;2023-07-13T08:11:17;100329.57;;;23.63;39.24
3748;BME280;1889;50.058;8.688;2023-07-13T08:13:46;100331.64;;;23.45;38.67
3748;BME280;1889;50.058;8.688;2023-07-13T08:16:15;100337.41;;;23.27;39.23
3748;BME280;1889;50.058;8.688;2023-07-13T08:18:44;100335.40;;;23.23;39.68
3748;BME280;1889;50.058;8.688;2023-07-13T08:21:14;100327.92;;;23.21;39.53
3748;BME280;1889;50.058;8.688;2023-07-13T08:23:43;100319.17;;;23.44;39.26
3748;BME280;1889;50.058;8.688;2023-07-13T08:26:12;100333.45;;;23.59;38.29
3748;BME280;1889;50.058;8.688;2023-07-13T08:28:41;100330.72;;;23.79;37.98
3748;BME280;1889;50.058;8.688;2023-07-13T08:31:11;100332.59;;;23.84;37.08
3748;BME280;1889;50.058;8.688;2023-07-13T08:33:40;100332.55;;;23.78;37.27
3748;BME280;1889;50.058;8.688;2023-07-13T08:36:09;100329.09;;;23.76;37.69
3748;BME280;1889;50.058;8.688;2023-07-13T08:38:38;100320.02;;;23.84;37.38
3748;BME280;1889;50.058;8.688;2023-07-13T08:41:12;100326.98;;;24.07;37.35
3748;BME280;1889;50.058;8.688;2023-07-13T08:43:42;100323.84;;;24.00;37.50
3748;BME280;1889;50.058;8.688;2023-07-13T08:46:24;100323.66;;;24.28;37.10
3748;BME280;1889;50.058;8.688;2023-07-13T08:48:57;100332.17;;;24.22;37.49
3748;BME280;1889;50.058;8.688;2023-07-13T08:51:47;100330.29;;;23.85;37.45
3748;BME280;1889;50.058;8.688;2023-07-13T08:54:28;100332.39;;;23.87;37.20
3748;BME280;1889;50.058;8.688;2023-07-13T08:57:00;100322.02;;;23.75;37.49
3748;BME280;1889;50.058;8.688;2023-07-13T08:59:31;100320.31;;;24.00;37.19
3748;BME280;1889;50.058;8.688;2023-07-13T09:05:08;100325.88;;;23.71;36.27
3748;BME280;1889;50.058;8.688;2023-07-13T09:12:57;100324.66;;;23.95;35.93
3748;BME280;1889;50.058;8.688;2023-07-13T09:15:26;100326.18;;;23.99;36.35
3748;BME280;1889;50.058;8.688;2023-07-13T09:17:58;100327.47;;;24.06;35.28
3748;BME280;1889;50.058;8.688;2023-07-13T09:20:37;100314.06;;;24.12;35.40
3748;BME280;1889;50.058;8.688;2023-07-13T09:23:10;100319.34;;;24.26;35.38
3748;BME280;1889;50.058;8.688;2023-07-13T09:25:38;100316.90;;;24.41;35.07
3748;BME280;1889;50.058;8.688;2023-07-13T09:31:01;100312.02;;;24.59;34.27
3748;BME280;1889;50.058;8.688;2023-07-13T09:33:30;100313.52;;;24.81;33.74
3748;BME280;1889;50.058;8.688;2023-07-13T09:36:01;100310.28;;;24.89;33.44
3748;BME280;1889;50.058;8.688;2023-07-13T09:38:30;100310.13;;;24.48;32.43
3748;BME280;1889;50.058;8.688;2023-07-13T09:41:14;100311.54;;;24.59;33.02
3748;BME280;1889;50.058;8.688;2023-07-13T09:44:00;100312.55;;;24.46;33.30
3748;BME280;1889;50.058;8.688;2023-07-13T09:46:29;100311.14;;;24.71;33.45
3748;BME280;1889;50.058;8.688;2023-07-13T09:48:58;100304.36;;;24.96;33.28
3748;BME280;1889;50.058;8.688;2023-07-13T09:51:27;100309.61;;;24.98;32.93
3748;BME280;1889;50.058;8.688;2023-07-13T09:53:56;100320.27;;;24.99;32.75
3748;BME280;1889;50.058;8.688;2023-07-13T09:56:29;100309.17;;;25.04;32.54
3748;BME280;1889;50.058;8.688;2023-07-13T09:59:00;100302.63;;;24.83;32.57
3748;BME280;1889;50.058;8.688;2023-07-13T10:01:34;100314.67;;;24.90;32.72
3748;BME280;1889;50.058;8.688;2023-07-13T10:04:11;100313.46;;;24.88;32.57
3748;BME280;1889;50.058;8.688;2023-07-13T10:06:41;100307.22;;;24.88;32.53
3748;BME280;1889;50.058;8.688;2023-07-13T10:09:15;100313.89;;;24.82;32.93
3748;BME280;1889;50.058;8.688;2023-07-13T10:11:45;100313.41;;;25.19;32.79
3748;BME280;1889;50.058;8.688;2023-07-13T10:14:17;100318.02;;;25.41;32.18
3748;BME280;1889;50.058;8.688;2023-07-13T10:16:47;100322.33;;;25.43;32.02
3748;BME280;1889;50.058;8.688;2023-07-13T10:19:25;100319.08;;;25.27;32.00
3748;BME280;1889;50.058;8.688;2023-07-13T10:22:00;100313.09;;;25.29;31.95
3748;BME280;1889;50.058;8.688;2023-07-13T10:24:35;100307.72;;;25.35;32.30
3748;BME280;1889;50.058;8.688;2023-07-13T10:27:12;100310.30;;;25.36;31.85
3748;BME280;1889;50.058;8.688;2023-07-13T10:29:44;100307.02;;;25.44;32.05
3748;BME280;1889;50.058;8.688;2023-07-13T10:32:13;100307.53;;;25.20;32.40
3748;BME280;1889;50.058;8.688;2023-07-13T10:34:44;100310.34;;;25.18;32.14
3748;BME280;1889;50.058;8.688;2023-07-13T10:37:27;100306.59;;;25.32;32.37
3748;BME280;1889;50.058;8.688;2023-07-13T10:39:52;100311.27;;;25.59;31.66
3748;BME280;1889;50.058;8.688;2023-07-13T10:42:40;100313.70;;;25.62;31.17
3748;BME280;1889;50.058;8.688;2023-07-13T10:45:20;100318.61;;;25.63;30.97
3748;BME280;1889;50.058;8.688;2023-07-13T10:47:51;100313.33;;;25.32;31.57
3748;BME280;1889;50.058;8.688;2023-07-13T10:50:23;100304.67;;;25.10;31.99
3748;BME280;1889;50.058;8.688;2023-07-13T10:52:55;100318.50;;;25.35;31.56
3748;BME280;1889;50.058;8.688;2023-07-13T10:55:41;100328.55;;;25.38;30.77
3748;BME280;1889;50.058;8.688;2023-07-13T10:58:34;100317.42;;;25.43;30.97
3748;BME280;1889;50.058;8.688;2023-07-13T11:01:03;100312.91;;;25.55;31.00
3748;BME280;1889;50.058;8.688;2023-07-13T11:04:08;100293.63;;;25.66;30.96
3748;BME280;1889;50.058;8.688;2023-07-13T11:06:11;100305.02;;;25.59;31.15
3748;BME280;1889;50.058;8.688;2023-07-13T11:14:02;100311.38;;;25.63;31.48
3748;BME280;1889;50.058;8.688;2023-07-13T11:16:42;100297.97;;;25.91;31.09
3748;BME280;1889;50.058;8.688;2023-07-13T11:19:55;100297.64;;;26.18;30.85
3748;BME280;1889;50.058;8.688;2023-07-13T11:27:38;100297.86;;;25.98;29.96
3748;BME280;1889;50.058;8.688;2023-07-13T11:30:18;100286.83;;;26.01;30.16
3748;BME280;1889;50.058;8.688;2023-07-13T11:32:39;100277.50;;;26.22;29.88
3748;BME280;1889;50.058;8.688;2023-07-13T11:35:19;100292.34;;;25.94;30.08
3748;BME280;1889;50.058;8.688;2023-07-13T11:37:47;100292.17;;;25.73;29.78
3748;BME280;1889;50.058;8.688;2023-07-13T11:40:17;100299.80;;;25.96;29.81
3748;BME280;1889;50.058;8.688;2023-07-13T11:42:46;100300.22;;;25.62;30.35
3748;BME280;1889;50.058;8.688;2023-07-13T11:45:18;100298.69;;;25.76;30.30
3748;BME280;1889;50.058;8.688;2023-07-13T11:47:48;100289.02;;;25.91;30.20
3748;BME280;1889;50.058;8.688;2023-07-13T11:50:24;100289.65;;;26.22;29.92
3748;BME280;1889;50.058;8.688;2023-07-13T11:52:50;100288.47;;;26.43;29.95
3748;BME280;1889;50.058;8.688;2023-07-13T11:55:22;100302.56;;;26.57;30.07
3748;BME280;1889;50.058;8.688;2023-07-13T11:57:57;100296.52;;;26.71;29.81
3748;BME280;1889;50.058;8.688;2023-07-13T12:00:32;100293.30;;;26.77;29.77
3748;BME280;1889;50.058;8.688;2023-07-13T12:03:02;100279.69;;;26.73;29.77
3748;BME280;1889;50.058;8.688;2023-07-13T12:05:33;100287.02;;;26.87;29.40
3748;BME280;1889;50.058;8.688;2023-07-13T12:08:09;100281.49;;;26.89;29.08
3748;BME280;1889;50.058;8.688;2023-07-13T12:10:41;100289.10;;;26.84;28.77
3748;BME280;1889;50.058;8.688;2023-07-13T12:13:12;100281.97;;;26.34;29.31
3748;BME280;1889;50.058;8.688;2023-07-13T12:15:43;100281.71;;;26.32;29.81
3748;BME280;1889;50.058;8.688;2023-07-13T12:18:18;100287.34;;;26.56;29.80
3748;BME280;1889;50.058;8.688;2023-07-13T12:20:47;100283.34;;;26.94;29.18
3748;BME280;1889;50.058;8.688;2023-07-13T12:23:33;100278.75;;;26.46;28.89
3748;BME280;1889;50.058;8.688;2023-07-13T12:26:05;100293.86;;;26.32;29.56
3748;BME280;1889;50.058;8.688;2023-07-13T12:28:37;100295.06;;;26.28;29.49
3748;BME280;1889;50.058;8.688;2023-07-13T12:31:19;100300.00;;;26.34;29.71
3748;BME280;1889;50.058;8.688;2023-07-13T12:33:39;100291.91;;;26.34;29.61
3748;BME280;1889;50.058;8.688;2023-07-13T12:36:10;100292.86;;;26.44;29.51
3748;BME280;1889;50.058;8.688;2023-07-13T12:38:40;100298.11;;;26.06;29.46
3748;BME280;1889;50.058;8.688;2023-07-13T12:41:10;100290.48;;;25.95;29.54
3748;BME280;1889;50.058;8.688;2023-07-13T12:43:39;100295.77;;;25.91;29.43
3748;BME280;1889;50.058;8.688;2023-07-13T12:46:19;100304.98;;;25.94;30.03
3748;BME280;1889;50.058;8.688;2023-07-13T12:48:51;100325.47;;;26.07;29.92
3748;BME280;1889;50.058;8.688;2023-07-13T12:51:24;100313.78;;;25.90;30.31
3748;BME280;1889;50.058;8.688;2023-07-13T12:54:16;100310.39;;;26.16;30.07
3748;BME280;1889;50.058;8.688;2023-07-13T12:56:41;100313.62;;;26.32;29.78
3748;BME280;1889;50.058;8.688;2023-07-13T12:59:18;100306.45;;;26.70;29.81
3748;BME280;1889;50.058;8.688;2023-07-13T13:01:43;100308.64;;;26.76;29.58
3748;BME280;1889;50.058;8.688;2023-07-13T13:04:12;100311.98;;;26.74;29.79
3748;BME280;1889;50.058;8.688;2023-07-13T13:06:41;100311.13;;;26.74;29.68
3748;BME280;1889;50.058;8.688;2023-07-13T13:09:15;100312.31;;;26.86;29.23
3748;BME280;1889;50.058;8.688;2023-07-13T13:11:46;100313.09;;;26.72;29.65
3748;BME280;1889;50.058;8.688;2023-07-13T13:14:15;100306.75;;;26.34;29.58
3748;BME280;1889;50.058;8.688;2023-07-13T13:16:51;100312.97;;;26.62;29.17
3748;BME280;1889;50.058;8.688;2023-07-13T13:19:24;100312.34;;;26.70;29.28
3748;BME280;1889;50.058;8.688;2023-07-13T13:21:55;100313.38;;;26.41;29.84
3748;BME280;1889;50.058;8.688;2023-07-13T13:24:27;100319.45;;;26.76;29.66
3748;BME280;1889;50.058;8.688;2023-07-13T13:26:57;100313.81;;;26.79;29.65
3748;BME280;1889;50.058;8.688;2023-07-13T13:29:26;100322.26;;;27.03;29.43
3748;BME280;1889;50.058;8.688;2023-07-13T13:31:55;100325.87;;;26.64;29.90
3748;BME280;1889;50.058;8.688;2023-07-13T13:34:25;100323.38;;;26.94;29.62
3748;BME280;1889;50.058;8.688;2023-07-13T13:36:54;100323.66;;;26.64;30.06
3748;BME280;1889;50.058;8.688;2023-07-13T13:39:32;100328.69;;;26.51;30.12
3748;BME280;1889;50.058;8.688;2023-07-13T13:41:56;100331.39;;;26.29;30.35
3748;BME280;1889;50.058;8.688;2023-07-13T13:44:25;100330.86;;;26.07;30.10
3748;BME280;1889;50.058;8.688;2023-07-13T13:46:55;100329.67;;;26.45;29.77
3748;BME280;1889;50.058;8.688;2023-07-13T13:49:27;100325.02;;;26.47;29.90
3748;BME280;1889;50.058;8.688;2023-07-13T13:51:57;100331.52;;;26.55;29.93
3748;BME280;1889;50.058;8.688;2023-07-13T13:54:27;100327.23;;;26.47;30.07